createdAt,value
2023-12-10T00:01:03.578Z,0.22
2023-12-10T00:03:31.916Z,0.23
2023-12-10T00:06:07.192Z,0.25
2023-12-10T00:08:41.674Z,0.26
2023-12-10T00:11:09.081Z,0.22
2023-12-10T00:13:36.462Z,0.24
2023-12-10T00:16:03.344Z,0.31
2023-12-10T00:18:31.538Z,0.33
2023-12-10T00:20:58.739Z,0.36
2023-12-10T00:23:25.750Z,0.42
2023-12-10T00:25:52.649Z,0.44
2023-12-10T00:28:19.598Z,0.47
2023-12-10T00:30:48.834Z,0.46
2023-12-10T00:33:17.432Z,0.49
2023-12-10T00:35:44.627Z,0.55
2023-12-10T00:38:13.669Z,0.56
2023-12-10T00:40:40.974Z,0.55
2023-12-10T00:43:07.981Z,0.54
2023-12-10T00:45:37.051Z,0.56
2023-12-10T00:48:07.585Z,0.60
2023-12-10T00:50:34.966Z,0.63
2023-12-10T00:53:05.170Z,0.64
2023-12-10T00:55:32.414Z,0.63
2023-12-10T00:57:59.430Z,0.64
2023-12-10T01:00:26.316Z,0.71
2023-12-10T01:02:53.699Z,0.65
2023-12-10T01:05:20.786Z,0.70
2023-12-10T01:07:50.208Z,0.71
2023-12-10T01:10:17.118Z,0.69
2023-12-10T01:12:46.295Z,0.70
2023-12-10T01:15:13.658Z,0.77
2023-12-10T01:17:43.211Z,0.79
2023-12-10T01:20:10.862Z,0.79
2023-12-10T01:22:38.690Z,0.82
2023-12-10T01:25:06.298Z,0.83
2023-12-10T01:27:33.468Z,0.87
2023-12-10T01:30:00.473Z,0.89
2023-12-10T01:32:27.688Z,0.90
2023-12-10T01:34:55.021Z,0.93
2023-12-10T01:37:22.520Z,0.94
2023-12-10T01:39:51.014Z,0.94
2023-12-10T01:42:18.502Z,0.95
2023-12-10T01:44:45.314Z,0.89
2023-12-10T01:47:13.456Z,0.93
2023-12-10T01:49:40.720Z,0.95
2023-12-10T01:52:09.163Z,0.96
2023-12-10T01:54:41.271Z,0.96
2023-12-10T01:57:09.174Z,0.98
2023-12-10T01:59:37.721Z,1.00
2023-12-10T02:02:06.883Z,1.02
2023-12-10T02:04:33.725Z,1.01
2023-12-10T02:07:01.415Z,1.06
2023-12-10T02:09:28.548Z,1.08
2023-12-10T02:11:55.963Z,1.07
2023-12-10T02:14:23.016Z,1.11
2023-12-10T02:16:51.099Z,1.08
2023-12-10T02:19:18.499Z,1.07
2023-12-10T02:21:47.786Z,1.14
2023-12-10T02:24:22.396Z,1.12
2023-12-10T02:26:49.600Z,1.08
2023-12-10T02:29:17.478Z,1.07
2023-12-10T02:31:44.461Z,1.02
2023-12-10T02:34:11.425Z,1.03
2023-12-10T02:36:38.917Z,0.99
2023-12-10T02:39:07.685Z,1.02
2023-12-10T02:41:34.756Z,1.01
2023-12-10T02:44:01.642Z,1.00
2023-12-10T02:46:28.615Z,0.98
2023-12-10T02:48:56.656Z,0.98
2023-12-10T02:51:23.584Z,0.97
2023-12-10T02:53:51.534Z,0.95
2023-12-10T02:56:19.621Z,0.96
2023-12-10T02:58:46.462Z,0.99
2023-12-10T03:01:13.817Z,0.94
2023-12-10T03:03:40.964Z,0.97
2023-12-10T03:06:08.655Z,0.99
2023-12-10T03:08:36.851Z,0.97
2023-12-10T03:11:03.707Z,1.02
2023-12-10T03:13:31.842Z,1.03
2023-12-10T03:15:59.294Z,1.08
2023-12-10T03:18:27.895Z,1.00
2023-12-10T03:20:55.086Z,0.94
2023-12-10T03:23:22.458Z,1.01
2023-12-10T03:25:49.507Z,1.06
2023-12-10T03:28:16.439Z,1.04
2023-12-10T03:30:43.465Z,1.07
2023-12-10T03:33:11.540Z,1.10
2023-12-10T03:35:38.843Z,1.14
2023-12-10T03:38:05.716Z,1.22
2023-12-10T03:40:32.717Z,1.16
2023-12-10T03:42:59.846Z,1.19
2023-12-10T03:45:27.081Z,1.18
2023-12-10T03:47:56.074Z,1.18
2023-12-10T03:50:23.095Z,1.18
2023-12-10T03:52:50.017Z,1.18
2023-12-10T03:55:18.373Z,1.17
2023-12-10T03:57:47.425Z,1.14
2023-12-10T04:00:14.640Z,1.14
2023-12-10T04:02:41.907Z,1.08
2023-12-10T04:05:13.762Z,1.05
2023-12-10T04:07:42.039Z,0.98
2023-12-10T04:10:10.669Z,0.98
2023-12-10T04:12:39.109Z,0.89
2023-12-10T04:15:07.022Z,0.85
2023-12-10T04:17:34.431Z,0.74
2023-12-10T04:20:01.930Z,0.63
2023-12-10T04:22:29.494Z,0.58
2023-12-10T04:24:56.832Z,0.50
2023-12-10T04:27:24.512Z,0.43
2023-12-10T04:29:52.485Z,0.40
2023-12-10T04:32:19.553Z,0.41
2023-12-10T04:34:54.022Z,0.38
2023-12-10T04:37:21.167Z,0.35
2023-12-10T04:39:49.693Z,0.36
2023-12-10T04:42:19.872Z,0.35
2023-12-10T04:44:47.089Z,0.29
2023-12-10T04:47:14.981Z,0.30
2023-12-10T04:49:42.431Z,0.28
2023-12-10T04:52:09.879Z,0.21
2023-12-10T04:54:37.073Z,0.15
2023-12-10T04:57:04.699Z,0.13
2023-12-10T04:59:32.008Z,0.17
2023-12-10T05:01:58.801Z,0.14
2023-12-10T05:04:26.271Z,0.10
2023-12-10T05:06:56.228Z,0.14
2023-12-10T05:09:23.289Z,0.20
2023-12-10T05:11:50.201Z,0.21
2023-12-10T05:14:17.178Z,0.24
2023-12-10T05:16:47.018Z,0.34
2023-12-10T05:19:14.215Z,0.36
2023-12-10T05:21:41.321Z,0.36
2023-12-10T05:24:09.751Z,0.41
2023-12-10T05:26:39.404Z,0.45
2023-12-10T05:29:07.618Z,0.45
2023-12-10T05:31:35.595Z,0.43
2023-12-10T05:34:02.697Z,0.50
2023-12-10T05:36:31.145Z,0.53
2023-12-10T05:38:59.019Z,0.56
2023-12-10T05:41:26.111Z,0.60
2023-12-10T05:43:52.865Z,0.58
2023-12-10T05:46:20.221Z,0.58
2023-12-10T05:48:47.430Z,0.57
2023-12-10T05:51:16.902Z,0.59
2023-12-10T05:53:44.297Z,0.58
2023-12-10T05:56:11.284Z,0.60
2023-12-10T05:58:38.148Z,0.62
2023-12-10T06:01:05.322Z,0.66
2023-12-10T06:03:32.848Z,0.66
2023-12-10T06:06:01.394Z,0.69
2023-12-10T06:08:30.436Z,0.74
2023-12-10T06:10:58.540Z,0.78
2023-12-10T06:13:27.683Z,0.79
2023-12-10T06:15:59.000Z,0.85
2023-12-10T06:18:26.054Z,0.85
2023-12-10T06:20:52.905Z,0.90
2023-12-10T06:23:20.935Z,0.93
2023-12-10T06:25:49.972Z,0.95
2023-12-10T06:28:16.819Z,0.97
2023-12-10T06:30:43.790Z,0.96
2023-12-10T06:33:10.859Z,1.00
2023-12-10T06:35:38.294Z,1.05
2023-12-10T06:38:05.103Z,1.06
2023-12-10T06:40:33.018Z,1.04
2023-12-10T06:43:02.204Z,1.10
2023-12-10T06:45:29.667Z,1.08
2023-12-10T06:47:56.491Z,1.10
2023-12-10T06:50:27.727Z,1.14
2023-12-10T06:52:54.929Z,1.14
2023-12-10T06:55:21.881Z,1.14
2023-12-10T06:57:54.410Z,1.12
2023-12-10T07:00:22.559Z,1.14
2023-12-10T07:02:52.857Z,1.19
2023-12-10T07:05:19.837Z,1.15
2023-12-10T07:07:46.839Z,1.17
2023-12-10T07:10:15.907Z,1.17
2023-12-10T07:12:42.941Z,1.15
2023-12-10T07:15:10.762Z,1.20
2023-12-10T07:17:39.055Z,1.20
2023-12-10T07:20:10.725Z,1.19
2023-12-10T07:22:38.632Z,1.20
2023-12-10T07:25:08.379Z,1.23
2023-12-10T07:27:40.489Z,1.28
2023-12-10T07:30:09.211Z,1.23
2023-12-10T07:32:36.334Z,1.21
2023-12-10T07:35:04.934Z,1.26
2023-12-10T07:37:32.302Z,1.23
2023-12-10T07:40:00.391Z,1.25
2023-12-10T07:42:28.313Z,1.20
2023-12-10T07:44:55.999Z,1.19
2023-12-10T07:47:23.049Z,1.21
2023-12-10T07:49:57.096Z,1.25
2023-12-10T07:52:24.206Z,1.23
2023-12-10T07:54:56.171Z,1.32
2023-12-10T07:57:24.457Z,1.29
2023-12-10T07:59:51.558Z,1.25
2023-12-10T08:02:19.573Z,1.25
2023-12-10T08:04:46.802Z,1.31
2023-12-10T08:07:14.137Z,1.30
2023-12-10T08:09:42.153Z,1.27
2023-12-10T08:12:09.557Z,1.23
2023-12-10T08:14:36.778Z,1.25
2023-12-10T08:17:06.877Z,1.26
2023-12-10T08:19:34.192Z,1.30
2023-12-10T08:22:03.096Z,1.31
2023-12-10T08:24:30.233Z,1.35
2023-12-10T08:26:57.349Z,1.37
2023-12-10T08:29:25.268Z,1.38
2023-12-10T08:31:53.180Z,1.39
2023-12-10T08:34:20.215Z,1.41
2023-12-10T08:36:47.059Z,1.50
2023-12-10T08:39:14.761Z,1.67
2023-12-10T08:41:42.585Z,1.71
2023-12-10T08:44:12.955Z,1.63
2023-12-10T08:46:40.076Z,1.54
2023-12-10T08:49:10.138Z,1.47
2023-12-10T08:51:38.604Z,1.44
2023-12-10T08:54:07.008Z,1.51
2023-12-10T08:56:34.858Z,1.47
2023-12-10T08:59:03.025Z,1.47
2023-12-10T09:01:31.573Z,1.36
2023-12-10T09:04:01.086Z,1.33
2023-12-10T09:06:28.515Z,1.31
2023-12-10T09:08:55.504Z,1.34
2023-12-10T09:11:22.777Z,1.31
2023-12-10T09:13:50.862Z,1.34
2023-12-10T09:16:20.377Z,1.31
2023-12-10T09:18:47.397Z,1.33
2023-12-10T09:21:14.711Z,1.28
2023-12-10T09:23:42.455Z,1.31
2023-12-10T09:26:09.555Z,1.34
2023-12-10T09:28:38.139Z,1.39
2023-12-10T09:31:05.121Z,1.34
2023-12-10T09:33:33.381Z,1.38
2023-12-10T09:36:01.147Z,1.38
2023-12-10T09:38:28.505Z,1.43
2023-12-10T09:40:55.558Z,1.51
2023-12-10T09:43:23.173Z,1.57
2023-12-10T09:45:51.431Z,1.56
2023-12-10T09:48:19.526Z,1.51
2023-12-10T09:50:46.742Z,1.55
2023-12-10T09:53:15.753Z,1.58
2023-12-10T09:55:43.780Z,1.63
2023-12-10T09:58:10.797Z,1.65
2023-12-10T10:00:39.317Z,1.55
2023-12-10T10:03:08.371Z,1.61
2023-12-10T10:05:37.338Z,1.65
2023-12-10T10:08:05.008Z,1.65
2023-12-10T10:10:32.831Z,1.55
2023-12-10T10:13:01.444Z,1.62
2023-12-10T10:15:30.640Z,1.63
2023-12-10T10:17:59.116Z,1.63
2023-12-10T10:20:27.588Z,1.64
2023-12-10T10:22:58.605Z,1.67
2023-12-10T10:25:26.006Z,1.72
2023-12-10T10:27:53.901Z,1.78
2023-12-10T10:30:21.825Z,1.85
2023-12-10T10:32:50.357Z,1.82
2023-12-10T10:35:17.699Z,1.76
2023-12-10T10:37:44.759Z,1.63
2023-12-10T10:40:12.341Z,1.69
2023-12-10T10:42:39.787Z,1.69
2023-12-10T10:45:10.202Z,1.69
2023-12-10T10:47:38.539Z,1.76
2023-12-10T10:50:21.529Z,1.59
2023-12-10T10:52:53.619Z,1.69
2023-12-10T10:55:22.052Z,1.72
2023-12-10T10:57:49.091Z,1.76
2023-12-10T11:00:21.828Z,1.73
2023-12-10T11:02:54.284Z,1.71
2023-12-10T11:05:36.469Z,1.64
2023-12-10T11:08:09.748Z,1.82
2023-12-10T11:10:43.449Z,1.91
2023-12-10T11:13:10.514Z,1.97
2023-12-10T11:15:38.046Z,2.00
2023-12-10T11:18:08.004Z,2.02
2023-12-10T11:20:48.519Z,2.00
2023-12-10T11:23:18.605Z,2.05
2023-12-10T11:25:48.235Z,2.03
2023-12-10T11:28:18.787Z,2.10
2023-12-10T11:30:50.867Z,2.16
2023-12-10T11:33:20.076Z,2.18
2023-12-10T11:36:17.514Z,2.29
2023-12-10T11:38:37.818Z,2.29
2023-12-10T11:41:05.329Z,2.31
2023-12-10T11:43:33.248Z,2.32
2023-12-10T11:46:00.461Z,2.35
2023-12-10T11:48:28.413Z,2.43
2023-12-10T11:50:56.801Z,2.53
2023-12-10T11:53:24.957Z,2.56
2023-12-10T11:55:53.781Z,2.66
2023-12-10T11:58:28.530Z,2.77
2023-12-10T12:01:06.558Z,2.89
2023-12-10T12:03:36.179Z,2.87
2023-12-10T12:06:05.697Z,2.98
2023-12-10T12:08:33.384Z,2.92
2023-12-10T12:11:00.722Z,3.10
2023-12-10T12:13:32.078Z,3.23
2023-12-10T12:15:59.142Z,3.25
2023-12-10T12:18:28.988Z,3.23
2023-12-10T12:20:56.156Z,3.37
2023-12-10T12:23:23.077Z,3.33
2023-12-10T12:25:51.011Z,3.26
2023-12-10T12:28:21.448Z,3.39
2023-12-10T12:30:48.378Z,3.52
2023-12-10T12:33:17.377Z,3.57
2023-12-10T12:35:44.390Z,3.75
2023-12-10T12:38:12.432Z,3.82
2023-12-10T12:40:39.281Z,3.86
2023-12-10T12:43:06.294Z,4.07
2023-12-10T12:45:34.851Z,4.07
2023-12-10T12:48:02.272Z,4.07
2023-12-10T12:50:31.657Z,4.09
2023-12-10T12:53:00.807Z,4.07
2023-12-10T12:55:28.613Z,4.09
2023-12-10T12:57:56.242Z,4.09
2023-12-10T13:00:23.771Z,4.10
2023-12-10T13:02:51.236Z,4.09
2023-12-10T13:05:18.294Z,4.12
2023-12-10T13:07:47.197Z,4.11
2023-12-10T13:10:15.300Z,4.11
2023-12-10T13:12:43.235Z,4.08
2023-12-10T13:15:10.861Z,4.12
2023-12-10T13:17:39.813Z,4.14
2023-12-10T13:20:07.947Z,4.13
2023-12-10T13:22:35.202Z,4.10
2023-12-10T13:25:06.280Z,4.07
2023-12-10T13:27:35.298Z,4.05
2023-12-10T13:30:02.332Z,4.15
2023-12-10T13:32:29.252Z,4.22
2023-12-10T13:34:56.681Z,4.23
2023-12-10T13:37:23.805Z,4.14
2023-12-10T13:39:51.715Z,4.08
2023-12-10T13:42:22.016Z,3.95
2023-12-10T13:44:49.001Z,3.93
2023-12-10T13:47:16.635Z,3.83
2023-12-10T13:49:44.669Z,3.84
2023-12-10T13:52:13.183Z,3.95
2023-12-10T13:54:40.439Z,3.93
2023-12-10T13:57:07.310Z,4.04
2023-12-10T13:59:35.366Z,4.06
2023-12-10T14:02:10.061Z,4.19
2023-12-10T14:04:37.070Z,4.24
2023-12-10T14:07:04.649Z,4.17
2023-12-10T14:09:33.921Z,4.24
2023-12-10T14:12:01.739Z,4.31
2023-12-10T14:14:28.743Z,4.36
2023-12-10T14:16:55.888Z,4.21
2023-12-10T14:19:23.061Z,4.14
2023-12-10T14:21:54.165Z,4.22
2023-12-10T14:24:22.387Z,4.27
2023-12-10T14:26:49.821Z,4.16
2023-12-10T14:29:17.444Z,4.15
2023-12-10T14:31:48.623Z,4.07
2023-12-10T14:34:15.849Z,3.96
2023-12-10T14:36:43.609Z,3.84
2023-12-10T14:39:11.664Z,3.83
2023-12-10T14:41:40.063Z,3.82
2023-12-10T14:44:07.709Z,3.94
2023-12-10T14:49:19.338Z,4.00
2023-12-10T14:51:48.315Z,4.05
2023-12-10T14:54:17.489Z,4.07
2023-12-10T14:56:44.657Z,4.04
2023-12-10T14:59:12.638Z,4.06
2023-12-10T15:01:39.654Z,4.01
2023-12-10T15:04:07.159Z,4.07
2023-12-10T15:06:34.190Z,4.06
2023-12-10T15:09:03.581Z,4.03
2023-12-10T15:11:33.539Z,3.91
2023-12-10T15:14:00.856Z,3.65
2023-12-10T15:16:27.723Z,3.49
2023-12-10T15:18:55.160Z,3.46
2023-12-10T15:21:23.434Z,3.32
2023-12-10T15:23:50.642Z,3.30
2023-12-10T15:26:19.576Z,3.17
2023-12-10T15:28:47.843Z,3.23
2023-12-10T15:31:15.328Z,3.17
2023-12-10T15:33:42.634Z,3.19
2023-12-10T15:36:14.737Z,3.13
2023-12-10T15:38:42.321Z,3.04
2023-12-10T15:41:09.878Z,2.99
2023-12-10T15:43:36.948Z,3.00
2023-12-10T15:46:04.297Z,3.00
2023-12-10T15:48:32.369Z,3.03
2023-12-10T15:51:02.995Z,2.99
2023-12-10T15:53:32.102Z,2.96
2023-12-10T15:55:59.397Z,3.03
2023-12-10T15:58:27.893Z,2.90
2023-12-10T16:00:54.967Z,2.88
2023-12-10T16:03:23.798Z,2.98
2023-12-10T16:05:51.639Z,3.00
2023-12-10T16:08:20.826Z,2.94
2023-12-10T16:10:48.244Z,2.89
2023-12-10T16:13:20.357Z,2.91
2023-12-10T16:15:49.837Z,2.95
2023-12-10T16:18:16.854Z,3.03
2023-12-10T16:20:46.416Z,3.02
2023-12-10T16:23:15.826Z,3.02
2023-12-10T16:25:42.613Z,2.91
2023-12-10T16:28:10.839Z,2.95
2023-12-10T16:30:40.129Z,2.88
2023-12-10T16:33:07.148Z,3.11
2023-12-10T16:35:34.001Z,3.18
2023-12-10T16:38:02.727Z,3.16
2023-12-10T16:40:29.976Z,3.12
2023-12-10T16:43:00.076Z,3.36
2023-12-10T16:45:28.066Z,3.23
2023-12-10T16:47:56.499Z,3.26
2023-12-10T16:50:23.357Z,3.45
2023-12-10T16:52:52.503Z,3.35
2023-12-10T16:55:22.056Z,3.59
2023-12-10T16:57:50.389Z,3.57
2023-12-10T17:00:18.803Z,3.52
2023-12-10T17:02:46.803Z,3.30
2023-12-10T17:05:13.932Z,3.44
2023-12-10T17:07:43.248Z,3.66
2023-12-10T17:10:11.823Z,3.64
2023-12-10T17:12:39.739Z,3.43
2023-12-10T17:15:07.947Z,3.44
2023-12-10T17:17:35.547Z,3.49
2023-12-10T17:20:03.104Z,3.47
2023-12-10T17:22:30.123Z,3.45
2023-12-10T17:24:58.631Z,3.52
2023-12-10T17:27:25.655Z,3.47
2023-12-10T17:29:53.123Z,3.45
2023-12-10T17:32:19.983Z,3.49
2023-12-10T17:34:48.033Z,3.59
2023-12-10T17:37:14.839Z,3.74
2023-12-10T17:39:41.804Z,3.82
2023-12-10T17:42:10.955Z,4.06
2023-12-10T17:44:47.300Z,4.18
2023-12-10T17:47:21.826Z,4.29
2023-12-10T17:49:49.226Z,4.32
2023-12-10T17:52:16.746Z,4.36
2023-12-10T17:54:44.067Z,4.47
2023-12-10T17:57:12.773Z,4.50
2023-12-10T17:59:40.065Z,4.50
2023-12-10T18:02:07.969Z,4.61
2023-12-10T18:04:34.830Z,4.60
2023-12-10T18:07:01.952Z,4.53
2023-12-10T18:09:30.163Z,4.53
2023-12-10T18:11:58.273Z,4.52
2023-12-10T18:14:26.493Z,4.46
2023-12-10T18:16:53.823Z,4.35
2023-12-10T18:19:21.226Z,4.31
2023-12-10T18:21:49.656Z,4.22
2023-12-10T18:24:18.090Z,4.28
2023-12-10T18:26:48.954Z,4.24
2023-12-10T18:29:17.204Z,4.18
2023-12-10T18:31:46.248Z,4.16
2023-12-10T18:34:13.740Z,4.09
2023-12-10T18:36:41.137Z,4.05
2023-12-10T18:39:09.459Z,4.01
2023-12-10T18:41:36.464Z,3.99
2023-12-10T18:44:03.748Z,3.97
2023-12-10T18:46:31.990Z,3.94
2023-12-10T18:48:59.345Z,3.89
2023-12-10T18:51:26.348Z,3.87
2023-12-10T18:53:53.643Z,3.84
2023-12-10T18:56:21.905Z,3.81
2023-12-10T18:58:50.292Z,3.79
2023-12-10T19:01:17.606Z,3.79
2023-12-10T19:03:48.494Z,3.81
2023-12-10T19:06:15.981Z,3.75
2023-12-10T19:08:43.329Z,3.80
2023-12-10T19:11:13.832Z,3.84
2023-12-10T19:13:41.182Z,3.68
2023-12-10T19:16:08.586Z,3.92
2023-12-10T19:18:41.937Z,3.90
2023-12-10T19:21:11.849Z,3.87
2023-12-10T19:23:42.081Z,3.87
2023-12-10T19:26:13.049Z,4.03
2023-12-10T19:28:40.271Z,4.14
2023-12-10T19:31:07.535Z,4.13
2023-12-10T19:33:35.302Z,4.19
2023-12-10T19:36:02.567Z,4.22
2023-12-10T19:38:29.515Z,4.21
2023-12-10T19:40:58.407Z,4.26
2023-12-10T19:43:26.445Z,4.23
2023-12-10T19:45:56.852Z,4.27
2023-12-10T19:48:26.385Z,4.27
2023-12-10T19:50:57.172Z,4.26
2023-12-10T19:53:24.390Z,4.20
2023-12-10T19:55:51.973Z,4.24
2023-12-10T19:58:19.407Z,4.25
2023-12-10T20:00:48.214Z,4.23
2023-12-10T20:03:18.779Z,4.24
2023-12-10T20:05:45.834Z,4.18
2023-12-10T20:08:12.751Z,4.07
2023-12-10T20:10:42.542Z,4.11
2023-12-10T20:13:11.825Z,4.01
2023-12-10T20:15:39.284Z,3.84
2023-12-10T20:18:06.822Z,3.70
2023-12-10T20:20:35.107Z,3.62
2023-12-10T20:23:02.068Z,3.63
2023-12-10T20:25:32.909Z,3.55
2023-12-10T20:28:03.279Z,3.50
2023-12-10T20:30:33.054Z,3.46
2023-12-10T20:33:00.538Z,3.44
2023-12-10T20:35:28.761Z,3.39
2023-12-10T20:38:00.501Z,3.42
2023-12-10T20:40:28.578Z,3.41
2023-12-10T20:42:57.700Z,3.38
2023-12-10T20:45:24.689Z,3.40
2023-12-10T20:47:52.646Z,3.40
2023-12-10T20:50:22.344Z,3.46
2023-12-10T20:52:49.604Z,3.46
2023-12-10T20:55:16.827Z,3.45
2023-12-10T20:57:45.065Z,3.47
2023-12-10T21:00:13.471Z,3.50
2023-12-10T21:02:40.683Z,3.50
2023-12-10T21:05:08.266Z,3.54
2023-12-10T21:07:35.729Z,3.51
2023-12-10T21:10:03.237Z,3.59
2023-12-10T21:12:30.577Z,3.60
2023-12-10T21:15:00.897Z,3.64
2023-12-10T21:17:29.175Z,3.67
2023-12-10T21:19:58.406Z,3.72
2023-12-10T21:22:26.387Z,3.72
2023-12-10T21:24:53.298Z,3.70
2023-12-10T21:27:20.198Z,3.66
2023-12-10T21:29:47.121Z,3.67
2023-12-10T21:32:16.119Z,3.69
2023-12-10T21:34:45.129Z,3.76
2023-12-10T21:37:12.960Z,3.85
2023-12-10T21:39:40.383Z,3.90
2023-12-10T21:42:07.648Z,3.95
2023-12-10T21:44:35.258Z,4.08
2023-12-10T21:47:02.535Z,4.14
2023-12-10T21:49:30.021Z,4.20
2023-12-10T21:51:57.431Z,4.23
2023-12-10T21:54:27.014Z,4.28
2023-12-10T21:56:54.493Z,4.35
2023-12-10T21:59:23.241Z,4.40
2023-12-10T22:01:50.999Z,4.44
2023-12-10T22:04:18.128Z,4.57
2023-12-10T22:06:46.232Z,4.60
2023-12-10T22:09:15.145Z,4.54
2023-12-10T22:11:44.307Z,4.52
2023-12-10T22:14:11.592Z,4.50
2023-12-10T22:16:39.978Z,4.55
2023-12-10T22:19:07.236Z,4.61
2023-12-10T22:21:35.914Z,4.61
2023-12-10T22:24:03.071Z,4.60
2023-12-10T22:26:32.508Z,4.50
2023-12-10T22:29:00.631Z,4.27
2023-12-10T22:31:27.975Z,4.21
2023-12-10T22:33:54.957Z,4.21
2023-12-10T22:36:22.794Z,4.22
2023-12-10T22:38:50.805Z,4.18
2023-12-10T22:41:17.696Z,4.14
2023-12-10T22:43:46.790Z,4.05
2023-12-10T22:46:13.710Z,4.06
2023-12-10T22:48:44.778Z,4.01
2023-12-10T22:51:12.218Z,4.00
2023-12-10T22:53:41.201Z,4.01
2023-12-10T22:56:08.441Z,3.86
2023-12-10T22:58:36.589Z,3.98
2023-12-10T23:01:05.008Z,4.19
2023-12-10T23:03:32.132Z,4.22
2023-12-10T23:05:58.925Z,4.19
2023-12-10T23:08:25.888Z,4.18
2023-12-10T23:10:53.054Z,4.14
2023-12-10T23:13:20.697Z,4.15
2023-12-10T23:16:15.494Z,4.08
2023-12-10T23:18:46.033Z,4.16
2023-12-10T23:21:13.477Z,4.30
2023-12-10T23:23:40.987Z,4.31
2023-12-10T23:26:07.786Z,4.39
2023-12-10T23:28:35.738Z,4.53
2023-12-10T23:31:03.838Z,4.69
2023-12-10T23:33:33.264Z,4.84
2023-12-10T23:36:00.783Z,4.91
2023-12-10T23:38:27.662Z,4.99
2023-12-10T23:40:54.591Z,5.03
2023-12-10T23:43:21.490Z,5.01
2023-12-10T23:45:50.031Z,4.92
2023-12-10T23:48:19.405Z,4.78
2023-12-10T23:50:47.027Z,4.61
2023-12-10T23:53:15.040Z,4.41
2023-12-10T23:55:41.905Z,4.26
2023-12-10T23:58:09.975Z,4.16
